createdAt,value
2022-08-17T00:00:43.429Z,40.20
2022-08-17T00:05:54.549Z,38.20
2022-08-17T00:10:59.835Z,43.00
2022-08-17T00:16:10.322Z,38.80
2022-08-17T00:21:23.850Z,31.50
2022-08-17T00:26:43.578Z,43.40
2022-08-17T00:31:52.737Z,42.70
2022-08-17T00:36:57.372Z,42.10
2022-08-17T00:42:01.617Z,37.30
2022-08-17T00:47:05.960Z,34.70
2022-08-17T00:52:19.606Z,42.30
2022-08-17T00:57:59.261Z,39.70
2022-08-17T01:03:11.487Z,49.60
2022-08-17T01:08:22.841Z,43.70
2022-08-17T01:13:28.312Z,49.70
2022-08-17T01:18:34.754Z,50.00
2022-08-17T01:23:39.088Z,44.30
2022-08-17T01:28:54.373Z,46.00
2022-08-17T01:34:05.204Z,42.00
2022-08-17T01:39:30.808Z,46.60
2022-08-17T01:44:38.919Z,40.20
2022-08-17T01:55:02.423Z,41.50
2022-08-17T02:00:12.552Z,46.90
2022-08-17T02:05:17.699Z,47.50
2022-08-17T02:10:24.968Z,48.60
2022-08-17T02:15:38.721Z,51.30
2022-08-17T02:20:43.619Z,46.80
2022-08-17T02:25:49.276Z,39.90
2022-08-17T02:31:00.745Z,44.40
2022-08-17T02:36:11.454Z,54.10
2022-08-17T02:41:15.672Z,41.50
2022-08-17T02:46:20.812Z,40.40
2022-08-17T02:51:28.441Z,49.90
2022-08-17T02:56:32.688Z,52.80
2022-08-17T03:01:37.050Z,45.40
2022-08-17T03:06:41.070Z,41.20
2022-08-17T03:11:45.311Z,51.30
2022-08-17T03:16:50.477Z,51.30
2022-08-17T03:21:55.398Z,41.80
2022-08-17T03:26:59.763Z,45.60
2022-08-17T03:32:17.433Z,64.90
2022-08-17T03:37:21.552Z,59.00
2022-08-17T03:42:32.597Z,57.50
2022-08-17T03:47:56.130Z,49.50
2022-08-17T03:53:22.150Z,54.10
2022-08-17T03:58:26.287Z,54.90
2022-08-17T04:03:30.329Z,53.00
2022-08-17T04:08:36.232Z,50.10
2022-08-17T04:13:40.540Z,56.20
2022-08-17T04:18:44.364Z,44.60
2022-08-17T04:23:49.013Z,48.00
2022-08-17T04:28:53.259Z,43.50
2022-08-17T04:33:57.392Z,55.40
2022-08-17T04:39:02.325Z,59.40
2022-08-17T04:44:06.491Z,56.20
2022-08-17T04:49:12.653Z,52.20
2022-08-17T04:54:23.141Z,58.80
2022-08-17T04:59:27.274Z,70.10
2022-08-17T05:04:35.025Z,59.50
2022-08-17T05:14:43.576Z,55.10
2022-08-17T05:19:51.836Z,64.20
2022-08-17T05:24:56.247Z,68.20
2022-08-17T05:30:02.038Z,51.50
2022-08-17T05:35:07.398Z,50.70
2022-08-17T05:40:12.350Z,63.20
2022-08-17T05:45:32.100Z,47.80
2022-08-17T05:51:31.656Z,69.20
2022-08-17T05:56:44.468Z,60.80
2022-08-17T06:02:04.269Z,62.50
2022-08-17T06:07:39.515Z,71.90
2022-08-17T06:13:08.416Z,60.70
2022-08-17T06:18:18.537Z,69.90
2022-08-17T06:23:44.295Z,71.50
2022-08-17T06:28:56.325Z,49.50
2022-08-17T06:34:04.379Z,46.70
2022-08-17T06:40:11.378Z,51.50
2022-08-17T06:45:29.370Z,46.00
2022-08-17T06:51:00.726Z,49.40
2022-08-17T06:56:22.771Z,46.50
2022-08-17T07:01:35.752Z,53.60
2022-08-17T07:06:57.652Z,54.60
2022-08-17T07:12:15.709Z,43.40
2022-08-17T07:17:46.700Z,47.60
2022-08-17T07:23:05.114Z,44.10
2022-08-17T07:28:09.499Z,48.90
2022-08-17T07:33:23.310Z,37.90
2022-08-17T07:38:34.702Z,36.70
2022-08-17T07:43:41.111Z,48.50
2022-08-17T07:48:55.563Z,35.50
2022-08-17T07:54:24.070Z,39.10
2022-08-17T08:00:12.666Z,34.50
2022-08-17T08:05:30.828Z,48.90
2022-08-17T08:11:34.367Z,34.20
2022-08-17T08:16:38.394Z,37.80
2022-08-17T08:22:03.725Z,41.10
2022-08-17T08:27:19.726Z,26.70
2022-08-17T08:32:57.568Z,25.20
2022-08-17T08:38:24.400Z,34.20
2022-08-17T08:43:55.534Z,29.30
2022-08-17T08:49:45.034Z,29.20
2022-08-17T08:55:04.376Z,24.60
2022-08-17T09:00:18.189Z,24.20
2022-08-17T09:06:37.329Z,22.80
2022-08-17T09:12:02.465Z,26.60
2022-08-17T09:18:03.528Z,27.00
2022-08-17T09:23:34.594Z,31.30
2022-08-17T09:28:43.999Z,21.30
2022-08-17T09:33:51.760Z,19.90
2022-08-17T09:39:12.753Z,21.80
2022-08-17T09:44:53.307Z,25.00
2022-08-17T09:51:04.286Z,23.00
2022-08-17T09:56:07.446Z,14.50
2022-08-17T10:02:00.277Z,14.00
2022-08-17T10:07:34.450Z,23.20
2022-08-17T10:12:49.586Z,23.40
2022-08-17T10:18:38.204Z,15.90
2022-08-17T10:24:04.785Z,10.80
2022-08-17T10:35:02.661Z,9.80
2022-08-17T10:40:28.487Z,12.60
2022-08-17T10:46:31.211Z,12.30
2022-08-17T10:51:41.115Z,11.30
2022-08-17T10:56:51.843Z,12.90
2022-08-17T11:02:19.830Z,8.80
2022-08-17T11:08:02.338Z,15.90
2022-08-17T11:13:41.509Z,12.10
2022-08-17T11:19:10.779Z,16.10
2022-08-17T11:24:19.930Z,12.80
2022-08-17T11:29:49.443Z,22.20
2022-08-17T11:35:21.341Z,15.40
2022-08-17T11:41:20.504Z,8.20
2022-08-17T11:47:19.595Z,16.40
2022-08-17T11:52:48.602Z,12.70
2022-08-17T11:58:16.794Z,12.50
2022-08-17T12:03:32.869Z,10.90
2022-08-17T12:13:55.846Z,10.60
2022-08-17T12:19:03.820Z,13.90
2022-08-17T12:25:01.831Z,12.60
2022-08-17T12:30:16.657Z,9.70
2022-08-17T12:35:39.560Z,11.20
2022-08-17T12:40:58.141Z,16.70
2022-08-17T12:46:15.270Z,12.30
2022-08-17T12:51:19.777Z,13.30
2022-08-17T12:56:23.916Z,11.40
2022-08-17T13:01:28.187Z,7.60
2022-08-17T13:06:37.085Z,12.00
2022-08-17T13:11:55.607Z,12.90
2022-08-17T13:17:07.365Z,13.40
2022-08-17T13:22:15.394Z,11.50
2022-08-17T13:27:23.614Z,16.20
2022-08-17T13:32:45.106Z,9.70
2022-08-17T13:38:38.322Z,11.00
2022-08-17T13:43:48.887Z,9.20
2022-08-17T13:49:10.334Z,10.80
2022-08-17T13:54:34.801Z,8.80
2022-08-17T13:59:52.993Z,9.70
2022-08-17T14:05:01.327Z,12.00
2022-08-17T14:10:15.587Z,12.00
2022-08-17T14:15:25.013Z,7.00
2022-08-17T14:20:50.591Z,12.30
2022-08-17T14:25:55.042Z,8.10
2022-08-17T14:30:59.353Z,10.40
2022-08-17T14:36:05.190Z,12.30
2022-08-17T14:41:09.781Z,17.70
2022-08-17T14:46:14.391Z,9.20
2022-08-17T14:51:23.826Z,9.40
2022-08-17T14:56:28.221Z,11.50
2022-08-17T15:01:39.605Z,16.80
2022-08-17T15:06:48.968Z,16.80
2022-08-17T15:11:54.461Z,14.40
2022-08-17T15:17:00.225Z,9.30
2022-08-17T15:22:04.655Z,14.80
2022-08-17T15:27:08.786Z,16.80
2022-08-17T15:32:33.096Z,16.40
2022-08-17T15:37:39.654Z,21.10
2022-08-17T15:42:43.717Z,17.80
2022-08-17T15:47:47.996Z,14.70
2022-08-17T15:53:01.647Z,17.70
2022-08-17T15:58:06.173Z,13.30
2022-08-17T16:03:45.351Z,16.30
2022-08-17T16:08:36.232Z,16.70
2022-08-17T16:13:42.248Z,11.00
2022-08-17T16:18:59.470Z,12.40
2022-08-17T16:24:13.226Z,21.40
2022-08-17T16:29:19.070Z,12.70
2022-08-17T16:34:24.025Z,15.40
2022-08-17T16:39:30.062Z,21.40
2022-08-17T16:44:34.339Z,14.40
2022-08-17T16:49:39.712Z,14.40
2022-08-17T16:54:45.960Z,19.60
2022-08-17T16:59:54.398Z,16.60
2022-08-17T17:05:59.452Z,14.10
2022-08-17T17:11:46.570Z,15.70
2022-08-17T17:17:19.793Z,14.40
2022-08-17T17:23:03.807Z,23.10
2022-08-17T17:28:36.809Z,22.70
2022-08-17T17:34:00.913Z,15.40
2022-08-17T17:39:37.091Z,15.60
2022-08-17T17:45:23.778Z,18.60
2022-08-17T17:50:41.314Z,14.60
2022-08-17T17:56:19.656Z,24.10
2022-08-17T18:02:53.632Z,19.00
2022-08-17T18:08:39.402Z,18.90
2022-08-17T18:14:26.518Z,17.90
2022-08-17T18:19:33.135Z,15.80
2022-08-17T18:24:41.633Z,13.30
2022-08-17T18:29:48.483Z,18.00
2022-08-17T18:35:28.380Z,16.20
2022-08-17T18:40:38.397Z,14.20
2022-08-17T18:45:58.568Z,24.70
2022-08-17T18:51:40.921Z,19.00
2022-08-17T18:57:00.268Z,22.60
2022-08-17T19:07:51.995Z,20.90
2022-08-17T19:13:12.697Z,23.80
2022-08-17T19:18:41.219Z,19.00
2022-08-17T19:24:01.538Z,25.20
2022-08-17T19:29:19.526Z,31.70
2022-08-17T19:34:34.458Z,18.80
2022-08-17T19:40:48.926Z,25.10
2022-08-17T19:46:07.872Z,19.40
2022-08-17T19:51:36.786Z,45.20
2022-08-17T19:57:12.539Z,51.20
2022-08-17T20:02:29.072Z,42.60
2022-08-17T20:08:12.602Z,26.60
2022-08-17T20:14:00.743Z,22.80
2022-08-17T20:19:35.432Z,32.20
2022-08-17T20:25:30.093Z,22.50
2022-08-17T20:30:43.051Z,21.20
2022-08-17T20:36:01.868Z,14.90
2022-08-17T20:41:10.810Z,15.30
2022-08-17T20:46:29.992Z,20.30
2022-08-17T20:52:01.448Z,24.00
2022-08-17T20:57:14.428Z,19.30
2022-08-17T21:02:24.791Z,19.10
2022-08-17T21:07:55.335Z,17.60
2022-08-17T21:13:15.672Z,20.60
2022-08-17T21:19:06.918Z,21.00
2022-08-17T21:24:33.166Z,27.80
2022-08-17T21:30:30.256Z,25.90
2022-08-17T21:36:16.633Z,22.20
2022-08-17T21:41:34.458Z,21.80
2022-08-17T21:46:46.469Z,31.90
2022-08-17T21:51:56.975Z,23.80
2022-08-17T21:57:06.404Z,27.20
2022-08-17T22:02:24.508Z,32.60
2022-08-17T22:08:00.403Z,33.60
2022-08-17T22:13:29.707Z,27.90
2022-08-17T22:18:34.901Z,32.20
2022-08-17T22:24:02.049Z,20.80
2022-08-17T22:29:57.475Z,29.10
2022-08-17T22:35:35.772Z,35.70
2022-08-17T22:40:40.627Z,23.00
2022-08-17T22:45:51.993Z,27.20
2022-08-17T22:51:14.714Z,28.60
2022-08-17T22:56:43.396Z,31.50
2022-08-17T23:02:16.343Z,24.10
2022-08-17T23:07:23.689Z,24.70
2022-08-17T23:12:28.240Z,20.10
2022-08-17T23:17:48.113Z,30.70
2022-08-17T23:22:54.289Z,29.30
2022-08-17T23:28:01.992Z,23.30
2022-08-17T23:33:12.577Z,25.90
2022-08-17T23:38:16.870Z,28.60
2022-08-17T23:43:24.212Z,23.10
2022-08-17T23:48:35.919Z,40.60
2022-08-17T23:53:50.895Z,37.70
2022-08-17T23:58:56.956Z,28.30
